createdAt,value
2023-03-26T00:02:04.871Z,9.76
2023-03-26T00:04:33.705Z,9.76
2023-03-26T00:07:01.797Z,9.76
2023-03-26T00:09:29.891Z,9.78
2023-03-26T00:11:59.058Z,9.78
2023-03-26T00:14:26.975Z,9.78
2023-03-26T00:16:54.718Z,9.78
2023-03-26T00:19:22.803Z,9.78
2023-03-26T00:21:52.652Z,9.80
2023-03-26T00:24:20.359Z,9.81
2023-03-26T00:26:53.327Z,9.79
2023-03-26T00:29:24.660Z,9.77
2023-03-26T00:31:52.411Z,9.77
2023-03-26T00:34:20.769Z,9.77
2023-03-26T00:36:54.270Z,9.74
2023-03-26T00:39:24.031Z,9.72
2023-03-26T00:41:54.548Z,9.67
2023-03-26T00:44:24.225Z,9.65
2023-03-26T00:46:51.986Z,9.62
2023-03-26T00:49:19.842Z,9.60
2023-03-26T00:51:47.568Z,9.58
2023-03-26T00:54:15.645Z,9.56
2023-03-26T00:56:43.526Z,9.60
2023-03-26T00:59:11.678Z,9.61
2023-03-26T01:01:40.870Z,9.63
2023-03-26T01:04:27.954Z,9.64
2023-03-26T01:06:56.621Z,9.67
2023-03-26T01:09:32.863Z,9.68
2023-03-26T01:12:02.062Z,9.68
2023-03-26T01:14:30.243Z,9.69
2023-03-26T01:17:01.441Z,9.72
2023-03-26T01:19:33.973Z,9.72
2023-03-26T01:22:01.876Z,9.73
2023-03-26T01:24:31.111Z,9.77
2023-03-26T01:27:25.695Z,9.77
2023-03-26T01:29:55.714Z,9.77
2023-03-26T01:32:32.069Z,9.78
2023-03-26T01:35:12.406Z,9.77
2023-03-26T01:37:52.772Z,9.75
2023-03-26T01:40:27.975Z,9.74
2023-03-26T01:43:05.355Z,9.71
2023-03-26T01:45:37.154Z,9.70
2023-03-26T01:48:06.192Z,9.67
2023-03-26T01:50:34.037Z,9.68
2023-03-26T01:53:02.182Z,9.66
2023-03-26T01:55:36.503Z,9.62
2023-03-26T01:58:13.867Z,9.61
2023-03-26T02:00:49.846Z,9.62
2023-03-26T02:03:27.080Z,9.59
2023-03-26T02:05:59.526Z,9.59
2023-03-26T02:08:35.445Z,9.58
2023-03-26T02:11:11.464Z,9.56
2023-03-26T02:13:40.073Z,9.56
2023-03-26T02:16:11.567Z,9.56
2023-03-26T02:18:39.704Z,9.57
2023-03-26T02:21:10.965Z,9.53
2023-03-26T02:23:40.266Z,9.53
2023-03-26T02:26:11.216Z,9.51
2023-03-26T02:28:39.820Z,9.51
2023-03-26T02:31:09.674Z,9.47
2023-03-26T02:33:38.153Z,9.48
2023-03-26T02:36:08.473Z,9.50
2023-03-26T02:38:36.534Z,9.51
2023-03-26T02:41:13.523Z,9.53
2023-03-26T02:43:41.233Z,9.53
2023-03-26T02:46:08.972Z,9.52
2023-03-26T02:48:36.709Z,9.52
2023-03-26T02:51:06.643Z,9.56
2023-03-26T02:53:34.456Z,9.58
2023-03-26T02:56:02.380Z,9.52
2023-03-26T02:58:31.432Z,9.51
2023-03-26T03:00:59.170Z,9.50
2023-03-26T03:03:28.216Z,9.47
2023-03-26T03:05:56.525Z,9.40
2023-03-26T03:08:28.089Z,9.34
2023-03-26T03:11:00.957Z,9.28
2023-03-26T03:13:29.320Z,9.29
2023-03-26T03:15:58.424Z,9.27
2023-03-26T03:18:26.205Z,9.27
2023-03-26T03:20:53.969Z,9.23
2023-03-26T03:23:21.704Z,9.20
2023-03-26T03:25:52.376Z,9.18
2023-03-26T03:28:20.505Z,9.17
2023-03-26T03:30:48.864Z,9.14
2023-03-26T03:33:20.284Z,9.12
2023-03-26T03:35:48.980Z,9.11
2023-03-26T03:38:17.013Z,9.10
2023-03-26T03:40:45.093Z,9.08
2023-03-26T03:43:12.780Z,9.08
2023-03-26T03:45:40.673Z,9.10
2023-03-26T03:48:08.499Z,9.08
2023-03-26T03:50:38.189Z,9.08
2023-03-26T03:53:06.622Z,9.07
2023-03-26T03:55:34.364Z,9.05
2023-03-26T03:58:02.112Z,9.05
2023-03-26T04:00:30.660Z,9.00
2023-03-26T04:02:58.764Z,9.00
2023-03-26T04:05:26.597Z,9.01
2023-03-26T04:07:55.707Z,9.03
2023-03-26T04:10:23.466Z,9.03
2023-03-26T04:12:51.184Z,9.04
2023-03-26T04:15:19.002Z,9.06
2023-03-26T04:17:46.781Z,9.02
2023-03-26T04:20:15.692Z,9.03
2023-03-26T04:22:43.705Z,9.07
2023-03-26T04:25:15.483Z,9.12
2023-03-26T04:27:44.105Z,9.13
2023-03-26T04:30:15.791Z,9.18
2023-03-26T04:32:44.687Z,9.22
2023-03-26T04:35:14.517Z,9.24
2023-03-26T04:37:44.442Z,9.28
2023-03-26T04:40:18.372Z,9.26
2023-03-26T04:42:46.530Z,9.29
2023-03-26T04:45:15.349Z,9.31
2023-03-26T04:47:43.029Z,9.31
2023-03-26T04:50:12.382Z,9.36
2023-03-26T04:52:40.963Z,9.37
2023-03-26T04:55:20.688Z,9.38
2023-03-26T04:57:54.755Z,9.39
2023-03-26T05:00:22.732Z,9.40
2023-03-26T05:02:51.085Z,9.41
2023-03-26T05:05:19.026Z,9.40
2023-03-26T05:07:46.882Z,9.43
2023-03-26T05:10:17.534Z,9.42
2023-03-26T05:12:45.228Z,9.43
2023-03-26T05:15:13.770Z,9.40
2023-03-26T05:17:42.641Z,9.38
2023-03-26T05:20:20.790Z,9.37
2023-03-26T05:22:48.733Z,9.38
2023-03-26T05:25:18.474Z,9.39
2023-03-26T05:27:46.749Z,9.41
2023-03-26T05:30:16.662Z,9.40
2023-03-26T05:32:44.678Z,9.42
2023-03-26T05:35:12.753Z,9.43
2023-03-26T05:37:40.409Z,9.43
2023-03-26T05:40:12.293Z,9.41
2023-03-26T05:42:42.311Z,9.41
2023-03-26T05:45:11.955Z,9.41
2023-03-26T05:47:39.702Z,9.39
2023-03-26T05:50:08.718Z,9.38
2023-03-26T05:52:36.715Z,9.36
2023-03-26T05:55:04.758Z,9.36
2023-03-26T05:57:32.894Z,9.39
2023-03-26T06:00:02.482Z,9.41
2023-03-26T06:02:30.476Z,9.42
2023-03-26T06:04:58.185Z,9.42
2023-03-26T06:07:27.000Z,9.44
2023-03-26T06:09:54.858Z,9.43
2023-03-26T06:12:22.670Z,9.44
2023-03-26T06:14:50.397Z,9.47
2023-03-26T06:17:19.497Z,9.47
2023-03-26T06:19:47.872Z,9.48
2023-03-26T06:22:15.636Z,9.49
2023-03-26T06:24:43.379Z,9.48
2023-03-26T06:27:11.085Z,9.49
2023-03-26T06:29:38.791Z,9.50
2023-03-26T06:32:18.963Z,9.53
2023-03-26T06:34:49.150Z,9.54
2023-03-26T06:37:16.970Z,9.57
2023-03-26T06:39:44.761Z,9.60
2023-03-26T06:42:12.455Z,9.59
2023-03-26T06:44:40.289Z,9.58
2023-03-26T06:47:08.023Z,9.60
2023-03-26T06:49:36.487Z,9.61
2023-03-26T06:52:06.024Z,9.62
2023-03-26T06:54:33.779Z,9.64
2023-03-26T06:57:01.583Z,9.65
2023-03-26T06:59:29.231Z,9.70
2023-03-26T07:01:56.957Z,9.70
2023-03-26T07:04:24.762Z,9.76
2023-03-26T07:06:52.582Z,9.78
2023-03-26T07:09:21.668Z,9.83
2023-03-26T07:11:49.374Z,9.87
2023-03-26T07:14:17.062Z,9.89
2023-03-26T07:16:44.879Z,9.92
2023-03-26T07:19:12.619Z,9.93
2023-03-26T07:21:40.923Z,9.96
2023-03-26T07:24:11.790Z,9.98
2023-03-26T07:26:50.125Z,10.01
2023-03-26T07:29:26.217Z,10.03
2023-03-26T07:32:02.077Z,10.07
2023-03-26T07:34:46.490Z,10.08
2023-03-26T07:37:27.111Z,10.10
2023-03-26T07:40:05.860Z,10.12
2023-03-26T07:42:45.992Z,10.12
2023-03-26T07:45:23.584Z,10.14
2023-03-26T07:47:53.612Z,10.14
2023-03-26T07:50:23.333Z,10.16
2023-03-26T07:52:51.669Z,10.18
2023-03-26T07:55:20.636Z,10.20
2023-03-26T07:58:02.060Z,10.20
2023-03-26T08:00:33.982Z,10.17
2023-03-26T08:03:24.025Z,10.18
2023-03-26T08:05:58.257Z,10.18
2023-03-26T08:08:34.319Z,10.20
2023-03-26T08:11:13.820Z,10.22
2023-03-26T08:13:57.644Z,10.27
2023-03-26T08:16:30.520Z,10.31
2023-03-26T08:19:07.836Z,10.33
2023-03-26T08:21:40.260Z,10.37
2023-03-26T08:24:14.712Z,10.45
2023-03-26T08:26:49.438Z,10.49
2023-03-26T08:29:32.707Z,10.52
2023-03-26T08:32:02.614Z,10.51
2023-03-26T08:34:30.351Z,10.49
2023-03-26T08:36:58.098Z,10.49
2023-03-26T08:39:25.828Z,10.46
2023-03-26T08:42:27.691Z,10.46
2023-03-26T08:45:35.507Z,10.44
2023-03-26T08:48:50.814Z,10.43
2023-03-26T08:52:03.236Z,10.39
2023-03-26T08:54:47.978Z,10.39
2023-03-26T08:57:49.331Z,10.45
2023-03-26T09:00:32.912Z,10.45
2023-03-26T09:03:18.352Z,10.48
2023-03-26T09:06:26.222Z,10.47
2023-03-26T09:09:22.161Z,10.47
2023-03-26T09:12:18.237Z,10.47
2023-03-26T09:15:39.740Z,10.47
2023-03-26T09:18:41.441Z,10.46
2023-03-26T09:21:38.479Z,10.51
2023-03-26T09:24:50.021Z,10.58
2023-03-26T09:27:37.216Z,10.55
2023-03-26T09:30:34.074Z,10.56
2023-03-26T09:33:33.792Z,10.60
2023-03-26T09:36:22.727Z,10.65
2023-03-26T09:39:00.349Z,10.66
2023-03-26T09:41:39.393Z,10.62
2023-03-26T09:44:45.815Z,10.62
2023-03-26T09:47:34.836Z,10.61
2023-03-26T09:50:21.577Z,10.59
2023-03-26T09:53:03.979Z,10.58
2023-03-26T09:55:45.268Z,10.58
2023-03-26T09:58:35.640Z,10.62
2023-03-26T10:01:12.541Z,10.64
2023-03-26T10:03:52.632Z,10.63
2023-03-26T10:06:32.631Z,10.63
2023-03-26T10:09:15.052Z,10.68
2023-03-26T10:11:59.318Z,10.72
2023-03-26T10:14:33.580Z,10.80
2023-03-26T10:17:10.590Z,10.89
2023-03-26T10:20:01.641Z,10.94
2023-03-26T10:22:45.472Z,10.86
2023-03-26T10:25:36.118Z,10.79
2023-03-26T10:28:20.300Z,10.80
2023-03-26T10:31:27.852Z,10.82
2023-03-26T10:34:06.493Z,10.76
2023-03-26T10:36:37.033Z,10.71
2023-03-26T10:39:36.709Z,10.70
2023-03-26T10:42:22.271Z,10.62
2023-03-26T10:45:11.241Z,10.54
2023-03-26T10:48:10.746Z,10.50
2023-03-26T10:51:03.829Z,10.55
2023-03-26T10:53:38.552Z,10.61
2023-03-26T10:56:18.216Z,10.67
2023-03-26T10:58:49.408Z,10.74
2023-03-26T11:01:25.963Z,10.89
2023-03-26T11:03:54.882Z,11.04
2023-03-26T11:06:38.701Z,11.15
2023-03-26T11:09:19.772Z,11.21
2023-03-26T11:11:55.109Z,11.28
2023-03-26T11:14:34.913Z,11.31
2023-03-26T11:17:15.060Z,11.30
2023-03-26T11:20:06.310Z,11.12
2023-03-26T11:22:43.982Z,10.97
2023-03-26T11:25:46.463Z,10.93
2023-03-26T11:28:33.578Z,10.97
2023-03-26T11:31:14.537Z,11.02
2023-03-26T11:33:48.242Z,11.05
2023-03-26T11:36:22.149Z,10.98
2023-03-26T11:38:52.242Z,11.01
2023-03-26T11:41:23.499Z,11.08
2023-03-26T11:43:55.197Z,11.14
2023-03-26T11:46:26.101Z,11.25
2023-03-26T11:48:58.100Z,11.24
2023-03-26T11:51:32.788Z,11.30
2023-03-26T11:54:00.732Z,11.31
2023-03-26T11:56:33.668Z,11.39
2023-03-26T11:59:08.610Z,11.50
2023-03-26T12:01:51.473Z,11.59
2023-03-26T12:04:21.140Z,11.66
2023-03-26T12:06:56.567Z,11.77
2023-03-26T12:09:25.799Z,11.89
2023-03-26T12:12:00.487Z,12.01
2023-03-26T12:14:31.508Z,12.12
2023-03-26T12:17:03.849Z,12.16
2023-03-26T12:19:42.510Z,12.20
2023-03-26T12:22:29.469Z,12.18
2023-03-26T12:25:16.131Z,12.16
2023-03-26T12:27:45.402Z,12.21
2023-03-26T12:30:21.538Z,12.28
2023-03-26T12:32:53.279Z,12.29
2023-03-26T12:35:26.786Z,12.31
2023-03-26T12:37:55.757Z,12.25
2023-03-26T12:40:34.257Z,12.28
2023-03-26T12:44:50.756Z,12.35
2023-03-26T12:46:58.953Z,12.29
2023-03-26T12:48:48.526Z,12.32
2023-03-26T12:51:27.717Z,12.43
2023-03-26T12:54:05.152Z,12.34
2023-03-26T12:56:40.455Z,12.24
2023-03-26T12:59:24.618Z,12.23
2023-03-26T13:02:02.219Z,12.24
2023-03-26T13:05:05.096Z,12.23
2023-03-26T13:07:52.800Z,11.95
2023-03-26T13:10:43.119Z,11.91
2023-03-26T13:13:23.406Z,11.93
2023-03-26T13:15:53.726Z,11.66
2023-03-26T13:18:45.372Z,11.64
2023-03-26T13:21:31.211Z,11.71
2023-03-26T13:24:11.354Z,11.81
2023-03-26T13:26:51.497Z,11.76
2023-03-26T13:29:26.139Z,11.78
2023-03-26T13:32:04.589Z,11.69
2023-03-26T13:34:41.181Z,11.55
2023-03-26T13:37:17.303Z,11.37
2023-03-26T13:39:56.918Z,11.18
2023-03-26T13:42:37.886Z,11.25
2023-03-26T13:45:15.065Z,11.28
2023-03-26T13:47:48.472Z,11.23
2023-03-26T13:50:23.095Z,11.20
2023-03-26T13:52:57.058Z,11.12
2023-03-26T13:55:30.053Z,11.14
2023-03-26T13:58:04.973Z,11.16
2023-03-26T14:00:54.464Z,11.17
2023-03-26T14:03:30.196Z,11.22
2023-03-26T14:06:05.026Z,11.20
2023-03-26T14:08:39.014Z,11.32
2023-03-26T14:11:12.264Z,11.46
2023-03-26T14:13:44.710Z,11.47
2023-03-26T14:16:15.885Z,11.55
2023-03-26T14:18:50.421Z,11.65
2023-03-26T14:21:40.821Z,11.63
2023-03-26T14:24:32.138Z,11.54
2023-03-26T14:27:43.992Z,11.43
2023-03-26T14:30:59.298Z,11.36
2023-03-26T14:33:45.378Z,11.20
2023-03-26T14:36:26.035Z,11.15
2023-03-26T14:39:23.639Z,11.16
2023-03-26T14:41:53.259Z,10.95
2023-03-26T14:44:47.816Z,10.94
2023-03-26T14:47:18.885Z,10.94
2023-03-26T14:50:21.472Z,10.87
2023-03-26T14:52:51.611Z,10.79
2023-03-26T14:55:41.964Z,10.68
2023-03-26T14:58:38.151Z,10.59
2023-03-26T15:01:26.601Z,10.72
2023-03-26T15:04:30.327Z,10.59
2023-03-26T15:07:42.682Z,10.49
2023-03-26T15:10:24.234Z,10.38
2023-03-26T15:13:31.110Z,10.38
2023-03-26T15:16:12.722Z,10.49
2023-03-26T15:19:17.687Z,10.45
2023-03-26T15:22:31.723Z,10.46
2023-03-26T15:25:33.252Z,10.17
2023-03-26T15:28:45.025Z,10.28
2023-03-26T15:31:42.675Z,10.30
2023-03-26T15:34:35.523Z,10.29
2023-03-26T15:37:22.294Z,10.13
2023-03-26T15:40:11.338Z,10.09
2023-03-26T15:42:52.408Z,10.11
2023-03-26T15:45:33.025Z,10.12
2023-03-26T15:48:13.823Z,10.03
2023-03-26T15:50:53.809Z,9.98
2023-03-26T15:53:34.842Z,9.90
2023-03-26T15:56:44.233Z,9.89
2023-03-26T15:59:31.140Z,9.74
2023-03-26T16:02:12.066Z,9.78
2023-03-26T16:04:50.415Z,9.78
2023-03-26T16:07:38.956Z,9.83
2023-03-26T16:10:35.076Z,9.63
2023-03-26T16:13:36.258Z,9.59
2023-03-26T16:16:25.817Z,9.63
2023-03-26T16:18:59.477Z,9.62
2023-03-26T16:21:56.058Z,9.43
2023-03-26T16:24:31.943Z,9.41
2023-03-26T16:27:32.122Z,9.39
2023-03-26T16:30:16.497Z,9.30
2023-03-26T16:32:56.083Z,9.40
2023-03-26T16:35:40.079Z,9.44
2023-03-26T16:38:13.403Z,9.57
2023-03-26T16:41:00.243Z,9.59
2023-03-26T16:43:48.558Z,9.57
2023-03-26T16:46:29.525Z,9.64
2023-03-26T16:49:04.966Z,9.64
2023-03-26T16:51:47.665Z,9.65
2023-03-26T16:54:19.315Z,9.63
2023-03-26T16:56:51.869Z,9.57
2023-03-26T17:00:06.738Z,9.53
2023-03-26T17:02:46.265Z,9.52
2023-03-26T17:05:21.036Z,9.46
2023-03-26T17:08:01.153Z,9.39
2023-03-26T17:10:36.231Z,9.37
2023-03-26T17:13:08.704Z,9.41
2023-03-26T17:15:42.149Z,9.24
2023-03-26T17:18:36.327Z,9.13
2023-03-26T17:21:11.997Z,9.15
2023-03-26T17:24:00.921Z,9.04
2023-03-26T17:26:34.922Z,9.03
2023-03-26T17:29:24.377Z,8.95
2023-03-26T17:32:00.418Z,9.04
2023-03-26T17:34:46.822Z,9.01
2023-03-26T17:37:33.466Z,9.06
2023-03-26T17:40:38.207Z,9.07
2023-03-26T17:43:11.120Z,8.87
2023-03-26T17:45:40.405Z,8.92
2023-03-26T17:48:16.948Z,8.87
2023-03-26T17:50:51.829Z,8.97
2023-03-26T17:53:25.722Z,8.95
2023-03-26T17:55:54.677Z,8.92
2023-03-26T17:58:34.670Z,8.90
2023-03-26T18:01:08.956Z,9.00
2023-03-26T18:03:44.353Z,9.00
2023-03-26T18:06:22.897Z,8.89
2023-03-26T18:09:08.091Z,8.75
2023-03-26T18:12:12.968Z,8.74
2023-03-26T18:15:13.416Z,8.73
2023-03-26T18:17:44.501Z,8.52
2023-03-26T18:20:35.473Z,8.49
2023-03-26T18:23:11.017Z,8.59
2023-03-26T18:25:41.081Z,8.42
2023-03-26T18:28:08.782Z,8.46
2023-03-26T18:30:54.539Z,8.47
2023-03-26T18:33:27.054Z,8.47
2023-03-26T18:35:56.888Z,8.37
2023-03-26T18:38:36.943Z,8.31
2023-03-26T18:41:09.167Z,8.36
2023-03-26T18:43:44.378Z,8.40
2023-03-26T18:46:13.393Z,8.31
2023-03-26T18:48:41.653Z,8.18
2023-03-26T18:51:09.719Z,8.23
2023-03-26T18:53:50.362Z,8.19
2023-03-26T18:56:30.914Z,8.23
2023-03-26T18:59:00.483Z,8.30
2023-03-26T19:01:35.309Z,8.29
2023-03-26T19:04:08.665Z,8.31
2023-03-26T19:06:46.154Z,8.44
2023-03-26T19:09:30.867Z,8.24
2023-03-26T19:12:09.774Z,8.02
2023-03-26T19:14:52.419Z,7.98
2023-03-26T19:17:19.935Z,7.93
2023-03-26T19:19:47.855Z,7.95
2023-03-26T19:22:16.659Z,8.08
2023-03-26T19:24:44.939Z,7.78
2023-03-26T19:27:14.119Z,7.76
2023-03-26T19:29:44.736Z,7.78
2023-03-26T19:32:19.119Z,7.82
2023-03-26T19:34:48.110Z,7.72
2023-03-26T19:37:22.425Z,7.73
2023-03-26T19:39:51.796Z,7.83
2023-03-26T19:42:26.247Z,7.82
2023-03-26T19:44:54.838Z,7.67
2023-03-26T19:47:32.117Z,7.60
2023-03-26T19:50:25.842Z,7.67
2023-03-26T19:53:16.560Z,7.55
2023-03-26T19:55:55.690Z,7.65
2023-03-26T19:58:25.920Z,7.55
2023-03-26T20:00:55.708Z,7.70
2023-03-26T20:03:28.437Z,7.62
2023-03-26T20:05:59.245Z,7.50
2023-03-26T20:08:27.867Z,7.34
2023-03-26T20:10:56.601Z,7.38
2023-03-26T20:13:25.742Z,7.37
2023-03-26T20:16:05.008Z,7.45
2023-03-26T20:18:33.179Z,7.52
2023-03-26T20:21:00.884Z,7.31
2023-03-26T20:23:28.948Z,7.40
2023-03-26T20:25:57.332Z,7.37
2023-03-26T20:28:26.629Z,7.36
2023-03-26T20:30:55.145Z,7.13
2023-03-26T20:33:26.780Z,7.06
2023-03-26T20:35:56.759Z,7.09
2023-03-26T20:38:36.712Z,6.99
2023-03-26T20:41:07.172Z,6.84
2023-03-26T20:43:36.503Z,6.83
2023-03-26T20:46:04.310Z,6.80
2023-03-26T20:48:36.240Z,6.80
2023-03-26T20:51:04.773Z,6.86
2023-03-26T20:53:32.705Z,6.84
2023-03-26T20:56:01.958Z,6.94
2023-03-26T20:58:31.119Z,6.93
2023-03-26T21:01:04.938Z,6.91
2023-03-26T21:03:32.630Z,6.68
2023-03-26T21:06:01.278Z,6.74
2023-03-26T21:08:34.987Z,6.57
2023-03-26T21:11:03.787Z,6.59
2023-03-26T21:13:38.325Z,6.61
2023-03-26T21:16:09.125Z,6.62
2023-03-26T21:18:37.845Z,6.40
2023-03-26T21:21:21.047Z,6.32
2023-03-26T21:23:59.206Z,6.36
2023-03-26T21:26:34.178Z,6.29
2023-03-26T21:29:09.722Z,6.17
2023-03-26T21:31:39.440Z,6.25
2023-03-26T21:34:09.579Z,6.19
2023-03-26T21:36:38.170Z,6.24
2023-03-26T21:39:06.489Z,6.20
2023-03-26T21:41:43.599Z,6.18
2023-03-26T21:44:11.741Z,6.22
2023-03-26T21:46:42.644Z,6.07
2023-03-26T21:49:10.918Z,5.94
2023-03-26T21:51:39.402Z,5.97
2023-03-26T21:54:18.651Z,5.88
2023-03-26T21:56:51.105Z,5.97
2023-03-26T21:59:22.937Z,5.94
2023-03-26T22:02:00.098Z,5.95
2023-03-26T22:04:36.803Z,5.95
2023-03-26T22:07:12.225Z,5.86
2023-03-26T22:09:40.398Z,5.78
2023-03-26T22:12:08.282Z,5.78
2023-03-26T22:14:35.979Z,5.82
2023-03-26T22:17:05.488Z,5.86
2023-03-26T22:19:34.381Z,5.82
2023-03-26T22:22:02.280Z,5.78
2023-03-26T22:24:29.997Z,5.76
2023-03-26T22:26:57.781Z,5.63
2023-03-26T22:29:25.431Z,5.61
2023-03-26T22:31:53.045Z,5.65
2023-03-26T22:34:23.052Z,5.58
2023-03-26T22:36:50.781Z,5.56
2023-03-26T22:39:18.428Z,5.56
2023-03-26T22:41:46.099Z,5.58
2023-03-26T22:46:48.956Z,5.66
2023-03-26T22:49:17.034Z,5.69
2023-03-26T22:51:46.671Z,5.72
2023-03-26T22:54:14.483Z,5.74
2023-03-26T22:56:43.522Z,5.75
2023-03-26T22:59:11.258Z,5.74
2023-03-26T23:01:39.037Z,5.76
2023-03-26T23:04:07.040Z,5.75
2023-03-26T23:06:34.756Z,5.68
2023-03-26T23:09:07.005Z,5.65
2023-03-26T23:11:34.817Z,5.55
2023-03-26T23:14:02.603Z,5.55
2023-03-26T23:16:31.659Z,5.48
2023-03-26T23:18:59.402Z,5.54
2023-03-26T23:21:27.092Z,5.57
2023-03-26T23:23:54.747Z,5.43
2023-03-26T23:26:24.413Z,5.43
2023-03-26T23:28:52.270Z,5.38
2023-03-26T23:31:19.964Z,5.33
2023-03-26T23:33:47.728Z,5.29
2023-03-26T23:36:18.118Z,5.29
2023-03-26T23:38:47.722Z,5.30
2023-03-26T23:41:16.696Z,5.30
2023-03-26T23:43:53.586Z,5.27
2023-03-26T23:46:23.739Z,5.22
2023-03-26T23:48:52.067Z,5.22
2023-03-26T23:51:20.982Z,5.23
2023-03-26T23:53:49.602Z,5.23
2023-03-26T23:56:17.903Z,5.10
2023-03-26T23:58:47.696Z,5.05
